Time;durP1;ratioP1;P1;durP2;ratioP2;P2;SDS_P1;SDS_P2;PMS_P1;PMS_P2;Temp;Humidity;BMP_temperature;BMP_pressure;BME280_temperature;BME280_humidity;BME280_pressure;Samples;Min_cycle;Max_cycle;Signal;HPM_P1;HPM_P2
2023/02/25 00:01:40;;;;;;;7.10;3.97;;;5.70;99.90;;;8.57;51.54;96454.88;5072229;28;20059;-51
2023/02/25 00:04:21;;;;;;;6.43;4.50;;;5.60;99.90;;;8.56;51.74;96460.34;5063892;28;20040;-48
2023/02/25 00:06:49;;;;;;;8.10;4.20;;;5.60;99.90;;;8.42;51.67;96452.16;5054531;28;20168;-46
2023/02/25 00:09:16;;;;;;;6.17;4.03;;;5.50;99.90;;;8.63;51.85;96466.59;5053556;28;20040;-46
2023/02/25 00:11:44;;;;;;;7.57;4.73;;;5.60;99.90;;;8.48;51.64;96464.72;5072098;28;20053;-45
2023/02/25 00:14:11;;;;;;;9.50;4.73;;;5.60;99.90;;;8.23;52.08;96469.31;5071578;28;20052;-48
2023/02/25 00:16:39;;;;;;;8.47;3.53;;;5.50;99.90;;;8.34;51.88;96467.28;5071457;28;20051;-48
2023/02/25 00:19:07;;;;;;;6.77;3.73;;;5.50;99.90;;;8.35;52.17;96472.38;5071440;28;20048;-47
2023/02/25 00:21:34;;;;;;;9.30;5.03;;;5.40;99.90;;;8.31;52.02;96462.31;5071737;28;20500;-48
2023/02/25 00:24:03;;;;;;;8.10;4.20;;;5.40;99.90;;;8.34;52.00;96472.59;5071343;28;20037;-48
2023/02/25 00:26:42;;;;;;;7.53;4.30;;;5.40;99.90;;;8.25;51.72;96474.44;5055691;28;20055;-46
2023/02/25 00:29:13;;;;;;;5.80;3.80;;;5.40;99.90;;;8.48;51.82;96467.34;5052983;28;20063;-48
2023/02/25 00:31:40;;;;;;;8.00;4.40;;;5.60;99.90;;;8.30;51.96;96469.44;5037405;28;20059;-47
2023/02/25 00:34:08;;;;;;;8.70;5.33;;;5.40;99.90;;;8.40;51.91;96466.56;5070788;28;20056;-49
2023/02/25 00:36:36;;;;;;;8.10;3.90;;;5.40;99.90;;;8.44;51.49;96479.31;5036015;28;20053;-52
2023/02/25 00:39:05;;;;;;;7.80;3.90;;;5.40;99.90;;;8.14;52.08;96474.84;5053479;28;20040;-48
2023/02/25 00:41:34;;;;;;;5.93;4.03;;;5.30;99.90;;;8.32;51.82;96474.56;5052629;28;20435;-48
2023/02/25 00:44:03;;;;;;;7.73;4.23;;;5.40;99.90;;;8.28;52.03;96474.94;5053012;28;20044;-46
2023/02/25 00:46:32;;;;;;;6.27;3.70;;;5.40;99.90;;;8.33;52.01;96470.91;5053309;28;20047;-48
2023/02/25 00:49:01;;;;;;;6.67;3.77;;;5.40;99.90;;;8.31;52.12;96473.75;5071334;28;20045;-47
2023/02/25 00:51:31;;;;;;;7.30;4.07;;;5.40;99.90;;;8.33;51.62;96470.91;5071219;28;20048;-46
2023/02/25 00:53:59;;;;;;;6.50;3.53;;;5.40;99.90;;;8.54;51.37;96472.97;5069046;28;20044;-44
2023/02/25 00:56:27;;;;;;;7.60;4.03;;;5.50;99.90;;;8.25;51.31;96472.63;5049634;28;20551;-46
2023/02/25 00:58:54;;;;;;;4.97;3.40;;;5.40;99.90;;;8.15;51.47;96473.84;5067502;28;20051;-48
2023/02/25 01:01:36;;;;;;;5.57;3.80;;;5.30;99.90;;;7.89;52.20;96467.03;5037301;28;20059;-47
2023/02/25 01:04:05;;;;;;;6.40;3.87;;;5.20;99.90;;;8.07;51.78;96477.38;5053885;28;20048;-47
2023/02/25 01:06:36;;;;;;;13.83;3.47;;;5.10;99.90;;;8.04;51.24;96469.75;5036026;28;20056;-48
2023/02/25 01:09:12;;;;;;;5.77;3.40;;;5.20;99.90;;;7.75;50.99;96500.34;5070620;28;20032;-45
2023/02/25 01:11:44;;;;;;;4.17;2.50;;;5.10;97.40;;;7.71;51.35;96487.63;5054271;28;20051;-47
2023/02/25 01:14:20;;;;;;;7.37;3.80;;;5.00;98.50;;;7.80;51.27;96483.97;5052092;28;20048;-45
2023/02/25 01:16:49;;;;;;;4.50;3.03;;;5.10;99.90;;;8.07;51.04;96482.69;5052872;28;20084;-47
2023/02/25 01:19:24;;;;;;;5.50;3.17;;;5.20;99.90;;;8.14;50.79;96486.25;5070789;28;20059;-51
2023/02/25 01:21:55;;;;;;;7.13;3.10;;;5.20;99.90;;;8.11;50.63;96485.81;5036356;28;20048;-46
2023/02/25 01:24:30;;;;;;;4.10;2.27;;;5.20;99.30;;;8.18;50.44;96489.41;5028460;28;20044;-47
2023/02/25 01:27:01;;;;;;;6.77;2.57;;;5.20;99.10;;;8.25;50.39;96475.25;5052754;28;20051;-46
2023/02/25 01:29:38;;;;;;;5.20;2.07;;;5.20;97.50;;;8.11;49.55;96494.56;5070160;28;20055;-45
2023/02/25 01:32:09;;;;;;;4.40;2.40;;;5.10;96.30;;;8.05;50.17;96505.88;5071206;28;20068;-47
2023/02/25 01:34:38;;;;;;;5.63;2.30;;;5.10;98.00;;;8.08;50.19;96502.88;5065602;28;20040;-45
2023/02/25 01:37:08;;;;;;;5.50;2.30;;;5.10;99.80;;;8.13;50.17;96521.75;5070711;28;20037;-46
2023/02/25 01:39:40;;;;;;;5.53;2.40;;;5.10;96.90;;;8.05;50.19;96512.00;5070792;28;20033;-48
2023/02/25 01:42:15;;;;;;;3.10;2.10;;;5.10;98.40;;;7.78;50.44;96513.28;5052055;28;20048;-48
2023/02/25 01:45:14;;;;;;;3.57;2.17;;;4.90;97.00;;;8.02;50.35;96514.97;5035667;28;20040;-47
2023/02/25 01:47:43;;;;;;;4.33;2.10;;;5.00;98.70;;;8.08;50.32;96516.97;5065060;28;20047;-48
2023/02/25 01:50:11;;;;;;;4.03;2.07;;;5.00;99.10;;;8.20;50.56;96506.81;5052808;28;20052;-50
2023/02/25 01:52:40;;;;;;;4.90;2.67;;;5.10;99.90;;;8.32;49.78;96501.94;5052855;28;20055;-45
2023/02/25 01:55:09;;;;;;;3.17;2.10;;;5.20;97.10;;;8.21;49.69;96502.31;5051484;28;20055;-45
2023/02/25 01:57:37;;;;;;;5.70;3.63;;;5.10;96.90;;;8.26;50.03;96506.09;5036075;28;20037;-49
2023/02/25 02:00:11;;;;;;;4.10;2.27;;;5.20;99.10;;;8.23;50.04;96509.09;5052639;28;20048;-49
2023/02/25 02:02:39;;;;;;;5.82;2.92;;;5.10;98.10;;;8.19;49.85;96501.66;5054943;28;20043;-46
2023/02/25 02:05:08;;;;;;;5.90;3.03;;;5.10;98.10;;;8.20;49.93;96493.53;5034822;28;20056;-45
2023/02/25 02:07:36;;;;;;;4.13;2.50;;;5.10;99.10;;;8.19;49.77;96502.47;5052050;28;20037;-47
2023/02/25 02:10:04;;;;;;;3.30;2.70;;;5.10;98.10;;;8.20;49.91;96496.19;5052375;28;20047;-48
2023/02/25 02:12:40;;;;;;;3.93;2.60;;;5.10;98.80;;;8.21;49.91;96491.72;5051865;28;20040;-50
2023/02/25 02:15:13;;;;;;;5.57;2.30;;;5.10;96.20;;;8.00;49.64;96494.97;5051690;28;20049;-47
2023/02/25 02:17:54;;;;;;;4.63;2.90;;;5.00;95.60;;;7.98;49.91;96497.78;5054219;28;20511;-46
2023/02/25 02:20:42;;;;;;;6.23;2.60;;;5.00;96.20;;;7.82;49.87;96498.69;5057370;28;20037;-46
2023/02/25 02:23:32;;;;;;;7.00;3.23;;;4.90;95.00;;;7.92;49.47;96498.47;5057007;28;20045;-46
2023/02/25 02:26:20;;;;;;;5.80;2.57;;;5.00;94.50;;;7.81;49.58;96502.34;5055171;28;20055;-46
2023/02/25 02:29:05;;;;;;;6.90;3.80;;;4.90;93.10;;;7.80;50.01;96499.88;5040581;28;20419;-44
2023/02/25 02:32:18;;;;;;;5.10;2.53;;;4.80;96.40;;;7.75;49.75;96500.34;5049733;28;20040;-49
2023/02/25 02:35:11;;;;;;;5.13;3.03;;;4.90;95.10;;;7.73;49.56;96496.25;5036684;28;20051;-47
2023/02/25 02:37:45;;;;;;;7.50;2.80;;;4.90;94.80;;;7.97;50.03;96513.84;5050710;28;20060;-47
2023/02/25 02:40:51;;;;;;;4.70;3.03;;;5.00;96.20;;;7.72;49.81;96515.78;5039835;28;20503;-48
2023/02/25 02:43:36;;;;;;;4.33;2.87;;;4.90;93.80;;;7.81;49.88;96525.34;5052863;28;20056;-45
2023/02/25 02:46:24;;;;;;;5.97;2.33;;;4.90;94.40;;;7.81;49.97;96525.34;5073299;28;20044;-45
2023/02/25 02:49:00;;;;;;;5.63;2.70;;;4.80;94.20;;;7.85;49.56;96529.31;5039244;28;20043;-45
2023/02/25 02:51:40;;;;;;;4.90;3.30;;;4.90;94.60;;;7.88;49.37;96523.66;5047411;28;20048;-44
2023/02/25 02:54:11;;;;;;;7.17;3.23;;;4.90;93.60;;;7.86;49.13;96528.31;5054068;28;20052;-51
2023/02/25 02:56:43;;;;;;;4.73;2.67;;;4.90;93.40;;;7.84;48.96;96532.97;5039660;28;20048;-47
2023/02/25 02:59:24;;;;;;;5.07;2.60;;;4.90;92.60;;;7.87;49.17;96525.50;5055539;28;20416;-46
2023/02/25 03:02:22;;;;;;;4.43;2.53;;;4.90;93.70;;;7.93;49.08;96529.28;5039408;28;20041;-48
2023/02/25 03:04:57;;;;;;;4.93;2.43;;;4.90;91.60;;;7.98;48.99;96537.53;5046113;28;20045;-47
2023/02/25 03:07:26;;;;;;;4.33;1.93;;;4.80;92.50;;;7.94;49.05;96546.00;5055789;28;20081;-47
2023/02/25 03:10:02;;;;;;;4.90;2.77;;;4.80;92.30;;;7.95;49.11;96548.50;5054998;28;20052;-46
2023/02/25 03:12:32;;;;;;;5.60;2.10;;;4.80;92.60;;;7.86;48.87;96544.22;5048243;28;20448;-48
2023/02/25 03:15:00;;;;;;;3.40;2.23;;;4.80;90.30;;;7.63;49.56;96546.75;5054876;28;20060;-49
2023/02/25 03:17:38;;;;;;;6.43;2.53;;;4.70;90.80;;;7.58;48.56;96542.00;5054938;28;20044;-49
2023/02/25 03:20:20;;;;;;;3.83;2.20;;;4.70;88.40;;;7.47;48.94;96542.34;5039357;28;20401;-46
2023/02/25 03:22:50;;;;;;;3.27;1.77;;;4.70;89.70;;;7.56;48.82;96549.28;5055451;28;20064;-47
2023/02/25 03:26:06;;;;;;;4.47;2.80;;;4.70;89.40;;;7.65;49.08;96550.06;5037850;28;20060;-51
2023/02/25 03:28:34;;;;;;;2.87;1.40;;;4.80;89.00;;;7.71;48.39;96556.50;5046944;28;20522;-46
2023/02/25 03:31:08;;;;;;;4.97;2.23;;;4.70;86.10;;;7.61;48.53;96556.69;5038395;28;20051;-50
2023/02/25 03:33:55;;;;;;;2.37;1.50;;;4.70;87.90;;;7.67;48.38;96550.72;5047512;28;20041;-48
2023/02/25 03:36:30;;;;;;;6.43;1.77;;;4.70;85.40;;;7.39;48.29;96561.72;5056239;28;20052;-49
2023/02/25 03:39:10;;;;;;;3.67;1.37;;;4.60;82.20;;;7.48;48.50;96554.56;5055295;28;20045;-46
2023/02/25 03:41:45;;;;;;;4.60;2.63;;;4.60;82.30;;;7.58;48.36;96552.59;5049321;28;20428;-47
2023/02/25 03:44:18;;;;;;;5.28;1.60;;;4.50;83.70;;;7.65;48.25;96556.19;5038253;28;20052;-48
2023/02/25 03:46:46;;;;;;;4.40;2.07;;;4.60;83.70;;;7.54;48.41;96561.00;5037863;28;20140;-48
2023/02/25 03:49:31;;;;;;;3.40;1.70;;;4.50;81.70;;;7.59;48.18;96559.53;5045402;28;20306;-44
2023/02/25 03:52:04;;;;;;;2.63;1.33;;;4.60;82.30;;;7.66;47.97;96564.97;5039094;28;20416;-48
2023/02/25 03:54:32;;;;;;;6.63;1.93;;;4.60;81.10;;;7.51;47.85;96562.19;5030093;28;20044;-45
2023/02/25 03:57:01;;;;;;;3.93;2.33;;;4.50;81.20;;;7.38;48.07;96564.53;5053811;28;20298;-49
2023/02/25 03:59:29;;;;;;;3.37;2.17;;;4.40;80.20;;;7.48;47.93;96563.34;5029639;28;20072;-48
2023/02/25 04:01:59;;;;;;;5.43;1.83;;;4.50;81.80;;;7.65;48.02;96577.38;5053827;28;20519;-45
2023/02/25 04:04:27;;;;;;;4.07;1.87;;;4.60;80.30;;;7.51;47.78;96570.13;5053611;28;20037;-45
2023/02/25 04:06:55;;;;;;;3.93;1.67;;;4.50;80.00;;;7.64;47.80;96573.09;5071982;28;20045;-49
2023/02/25 04:09:22;;;;;;;3.97;2.60;;;4.50;79.60;;;7.56;48.03;96575.75;5053373;28;20527;-45
2023/02/25 04:11:55;;;;;;;6.27;1.70;;;4.50;80.10;;;7.61;47.59;96584.00;5054249;28;20051;-47
2023/02/25 04:14:23;;;;;;;2.05;1.80;;;4.50;79.10;;;7.71;47.91;96580.34;5053561;28;20055;-48
2023/02/25 04:16:51;;;;;;;4.13;1.70;;;4.60;80.30;;;7.68;47.65;96589.47;5053555;28;20051;-45
2023/02/25 04:19:18;;;;;;;2.90;1.53;;;4.50;78.40;;;7.64;47.61;96588.16;5070349;28;20064;-46
2023/02/25 04:21:46;;;;;;;4.30;1.80;;;4.60;78.30;;;7.58;47.00;96583.53;5053603;28;20047;-44
2023/02/25 04:24:14;;;;;;;1.97;1.50;;;4.50;78.00;;;7.56;47.49;96586.34;5053732;28;20043;-46
2023/02/25 04:26:41;;;;;;;4.67;1.77;;;4.50;77.70;;;7.48;46.90;96589.00;5071675;28;20044;-46
2023/02/25 04:29:09;;;;;;;4.90;1.93;;;4.50;76.30;;;7.52;46.95;96592.97;5037467;28;20051;-45
2023/02/25 04:31:36;;;;;;;4.43;2.00;;;4.50;76.70;;;7.49;47.00;96593.31;5071543;28;20045;-47
2023/02/25 04:34:04;;;;;;;5.30;2.47;;;4.40;77.00;;;7.47;47.30;96598.78;5071105;28;20049;-49
2023/02/25 04:36:34;;;;;;;2.70;1.50;;;4.40;76.00;;;7.42;47.03;96587.03;5068301;28;20041;-40
2023/02/25 04:39:04;;;;;;;3.10;1.30;;;4.30;76.60;;;7.45;46.70;96595.47;5071662;28;20051;-41
2023/02/25 04:41:34;;;;;;;2.63;1.30;;;4.40;77.00;;;7.51;46.70;96598.44;5070457;28;20040;-42
2023/02/25 04:44:03;;;;;;;4.67;1.27;;;4.40;75.90;;;7.44;46.85;96587.69;5071234;28;20041;-40
2023/02/25 04:46:34;;;;;;;1.90;1.50;;;4.30;76.50;;;7.35;46.91;96592.16;5071295;28;20494;-41
2023/02/25 04:49:02;;;;;;;6.63;2.07;;;4.20;75.50;;;7.25;46.78;96597.63;5071598;28;20047;-40
2023/02/25 04:51:31;;;;;;;2.80;1.87;;;4.20;75.70;;;7.24;47.05;96598.63;5053296;28;20040;-40
2023/02/25 04:53:59;;;;;;;4.40;1.30;;;4.20;75.10;;;7.41;46.43;96604.75;5071000;28;20048;-41
2023/02/25 04:56:26;;;;;;;5.60;2.03;;;4.30;74.80;;;7.37;46.06;96602.59;5071149;28;20188;-41
2023/02/25 04:58:57;;;;;;;6.37;1.37;;;4.30;73.40;;;7.43;46.30;96600.09;5052843;28;20045;-42
2023/02/25 05:01:24;;;;;;;6.93;1.97;;;4.30;72.90;;;7.37;45.93;96600.78;5070992;28;20044;-43
2023/02/25 05:03:55;;;;;;;2.23;1.33;;;4.30;71.40;;;7.48;45.64;96594.28;5071003;28;20047;-42
2023/02/25 05:06:24;;;;;;;6.63;1.30;;;4.40;71.20;;;7.45;45.61;96597.28;5070733;28;20048;-42
2023/02/25 05:08:56;;;;;;;4.60;1.20;;;4.40;71.80;;;7.44;45.27;96598.28;5071111;28;20044;-41
2023/02/25 05:11:26;;;;;;;1.67;1.40;;;4.40;70.70;;;7.54;45.48;96598.94;5070719;28;20307;-41
2023/02/25 05:13:55;;;;;;;2.33;1.03;;;4.40;71.20;;;7.65;45.46;96603.88;5071077;28;20056;-41
2023/02/25 05:16:24;;;;;;;5.33;1.47;;;4.50;72.00;;;7.66;45.12;96597.59;5052860;28;20044;-40
2023/02/25 05:18:53;;;;;;;2.63;1.23;;;4.50;70.00;;;7.63;45.05;96600.56;5070864;28;20044;-41
2023/02/25 05:21:24;;;;;;;3.73;1.60;;;4.50;70.70;;;7.68;45.29;96594.78;5070638;28;20419;-42
2023/02/25 05:23:53;;;;;;;5.00;1.50;;;4.50;71.60;;;7.56;45.30;96596.94;5070877;28;20052;-40
2023/02/25 05:26:23;;;;;;;2.47;1.10;;;4.50;70.70;;;7.44;44.81;96600.91;5070246;28;20044;-41
2023/02/25 05:28:55;;;;;;;6.33;1.33;;;4.30;69.00;;;7.54;44.99;96603.38;5053278;28;20053;-44
2023/02/25 05:31:23;;;;;;;1.63;1.10;;;4.40;70.50;;;7.53;44.64;96594.63;5070736;28;20511;-41
2023/02/25 05:33:52;;;;;;;1.87;1.00;;;4.40;68.30;;;7.40;44.93;96600.41;5070613;28;20047;-41
2023/02/25 05:36:20;;;;;;;2.40;1.90;;;4.30;69.30;;;7.36;44.78;96599.09;5070171;28;20076;-40
2023/02/25 05:38:48;;;;;;;5.33;1.40;;;4.20;69.30;;;7.46;45.10;96599.78;5053051;28;20048;-42
2023/02/25 05:41:16;;;;;;;4.07;1.30;;;4.30;70.80;;;7.55;44.88;96590.00;5070194;28;20036;-41
2023/02/25 05:43:44;;;;;;;2.17;1.70;;;4.40;70.40;;;7.58;45.10;96594.13;5052825;28;20068;-43
2023/02/25 05:46:13;;;;;;;2.67;1.37;;;4.40;70.20;;;7.63;45.08;96587.31;5069714;28;20052;-40
2023/02/25 05:48:47;;;;;;;2.97;2.00;;;4.40;70.70;;;7.65;45.04;96592.44;5070461;28;20048;-41
2023/02/25 05:51:21;;;;;;;;;;;4.50;71.30;;;7.71;45.34;96591.78;5071791;28;20055;-41
2023/02/25 05:53:52;;;;;;;3.13;1.35;;;4.50;70.70;;;7.80;45.11;96596.06;5074604;28;19927;-40
2023/02/25 05:56:23;;;;;;;1.43;1.13;;;4.50;71.80;;;7.79;44.69;96594.44;5055717;28;20076;-41
2023/02/25 05:58:54;;;;;;;2.97;1.17;;;4.50;69.10;;;7.68;45.24;96590.31;5074564;28;20044;-42
2023/02/25 06:01:26;;;;;;;1.83;1.07;;;4.40;70.70;;;7.67;44.91;96593.09;5074510;28;20040;-43
2023/02/25 06:03:58;;;;;;;3.60;1.30;;;4.40;69.50;;;7.56;44.88;96594.31;5074366;28;20039;-41
2023/02/25 06:06:28;;;;;;;1.97;1.13;;;4.30;69.00;;;7.53;45.24;96597.28;5056146;28;20048;-41
2023/02/25 06:08:56;;;;;;;4.80;1.60;;;4.40;71.00;;;7.58;44.90;96615.31;5074117;28;20048;-40
2023/02/25 06:11:29;;;;;;;4.00;1.30;;;4.30;70.50;;;7.54;44.93;96617.47;5056330;28;20049;-41
2023/02/25 06:13:58;;;;;;;3.90;1.65;;;4.30;71.00;;;7.54;45.33;96614.84;5074527;28;20526;-40
2023/02/25 06:16:30;;;;;;;3.33;1.37;;;4.30;71.70;;;7.56;45.04;96617.28;5056015;28;20060;-40
2023/02/25 06:19:00;;;;;;;4.13;1.40;;;4.30;71.10;;;7.52;45.38;96621.28;5073967;28;20040;-43
2023/02/25 06:21:29;;;;;;;4.30;1.40;;;4.40;70.80;;;7.44;44.92;96625.59;5073870;28;20040;-43
2023/02/25 06:23:57;;;;;;;3.50;1.20;;;4.30;71.00;;;7.53;45.26;96617.66;5074009;28;20044;-41
2023/02/25 06:26:25;;;;;;;6.17;1.30;;;4.40;71.40;;;7.58;44.56;96633.84;5055930;28;20044;-42
2023/02/25 06:28:53;;;;;;;3.67;1.33;;;4.40;70.00;;;7.58;45.29;96632.03;5073731;28;20032;-40
2023/02/25 06:31:23;;;;;;;4.73;1.47;;;4.40;70.00;;;7.53;45.41;96629.06;5073769;28;20041;-42
2023/02/25 06:33:53;;;;;;;4.93;1.30;;;4.40;70.50;;;7.52;44.99;96629.22;5039890;28;20492;-43
2023/02/25 06:36:21;;;;;;;1.70;1.27;;;4.30;69.90;;;7.53;45.30;96613.16;5072967;28;20052;-41
2023/02/25 06:38:49;;;;;;;3.30;1.43;;;4.40;70.00;;;7.46;45.20;96620.13;5073825;28;20041;-40
2023/02/25 06:41:20;;;;;;;2.10;1.13;;;4.40;69.40;;;7.33;45.10;96630.38;5072702;28;20055;-40
2023/02/25 06:43:50;;;;;;;4.10;1.30;;;4.30;69.00;;;7.40;44.92;96620.78;5073543;28;20047;-40
2023/02/25 06:46:22;;;;;;;1.60;1.10;;;4.30;69.90;;;7.32;44.80;96626.91;5072849;28;20041;-40
2023/02/25 06:48:51;;;;;;;2.67;1.20;;;4.30;69.00;;;7.23;45.06;96619.94;5073378;28;20037;-40
2023/02/25 06:51:18;;;;;;;2.50;1.03;;;4.20;69.80;;;7.42;44.92;96619.63;5073193;28;20049;-40
2023/02/25 06:53:46;;;;;;;4.93;2.60;;;4.30;70.30;;;7.49;44.99;96625.91;5073513;28;20040;-44
2023/02/25 06:56:15;;;;;;;3.20;1.53;;;4.40;67.90;;;7.35;44.68;96636.34;5055200;28;20049;-41
2023/02/25 06:58:42;;;;;;;2.43;1.20;;;4.30;67.80;;;7.32;44.30;96640.16;5065232;28;20051;-40
2023/02/25 07:01:14;;;;;;;3.47;1.50;;;4.30;67.40;;;7.33;44.14;96646.25;5073363;28;20427;-41
2023/02/25 07:03:42;;;;;;;6.30;1.17;;;4.20;66.90;;;7.37;44.30;96650.25;5064605;28;20044;-40
2023/02/25 07:06:10;;;;;;;1.30;1.10;;;4.30;67.10;;;7.35;44.38;96654.88;5072851;28;20048;-43
2023/02/25 07:08:38;;;;;;;3.40;1.10;;;4.30;67.60;;;7.39;44.42;96657.03;5073318;28;20419;-42
2023/02/25 07:11:32;;;;;;;3.73;1.07;;;4.30;67.70;;;7.25;43.16;96655.03;5073242;28;20056;-43
2023/02/25 07:14:01;;;;;;;2.72;1.00;;;4.30;64.00;;;7.26;44.38;96659.34;5060395;28;20044;-41
2023/02/25 07:16:29;;;;;;;1.07;0.90;;;4.30;67.40;;;7.13;44.11;96656.34;5072410;28;20041;-41
2023/02/25 07:19:01;;;;;;;2.33;1.37;;;4.20;66.50;;;7.10;44.27;96660.16;5073032;28;20041;-41
2023/02/25 07:21:29;;;;;;;1.67;1.20;;;4.20;65.30;;;7.16;43.84;96663.97;5055222;28;20519;-41
2023/02/25 07:23:57;;;;;;;7.07;1.60;;;4.20;66.60;;;7.10;44.46;96668.91;5072971;28;20052;-42
2023/02/25 07:26:28;;;;;;;2.07;1.17;;;4.20;66.10;;;7.35;44.04;96676.06;5072208;28;20056;-41
2023/02/25 07:28:59;;;;;;;2.70;1.67;;;4.30;66.80;;;7.09;43.99;96669.94;5072618;28;20041;-41
2023/02/25 07:31:27;;;;;;;3.20;1.20;;;4.20;66.50;;;7.24;44.41;96661.34;5072788;28;20043;-41
2023/02/25 07:34:02;;;;;;;2.37;1.10;;;4.20;66.10;;;7.17;43.80;96662.97;5072718;28;20037;-43
2023/02/25 07:36:34;;;;;;;3.17;1.40;;;4.20;65.60;;;7.08;44.04;96670.91;5052329;28;20424;-42
2023/02/25 07:39:07;;;;;;;3.87;1.87;;;4.10;66.30;;;7.41;44.02;96660.34;5063127;28;20512;-42
2023/02/25 07:41:35;;;;;;;4.68;2.45;;;4.30;67.30;;;7.45;44.20;96658.19;5071989;28;20048;-42
2023/02/25 07:44:05;;;;;;;2.77;1.23;;;4.40;65.60;;;7.44;43.73;96654.72;5053945;28;20408;-41
2023/02/25 07:46:33;;;;;;;2.47;1.33;;;4.30;65.50;;;7.46;43.63;96652.75;5054260;28;20056;-42
2023/02/25 07:49:00;;;;;;;2.50;1.40;;;4.40;67.00;;;7.57;43.74;96664.81;5071334;28;20037;-41
2023/02/25 07:51:28;;;;;;;1.87;1.10;;;4.50;66.60;;;7.52;43.40;96666.28;5054282;28;20048;-41
2023/02/25 07:53:56;;;;;;;2.60;1.33;;;4.40;65.00;;;7.64;43.44;96663.16;5072540;28;20447;-41
2023/02/25 07:56:26;;;;;;;4.33;1.83;;;4.50;66.30;;;7.62;43.49;96654.56;5070434;28;20040;-45
2023/02/25 07:58:54;;;;;;;4.23;1.63;;;4.50;65.40;;;7.35;43.95;96657.50;5064976;28;20045;-45
2023/02/25 08:01:30;;;;;;;3.80;1.73;;;4.40;65.20;;;7.35;43.46;96663.66;5071923;28;20052;-43
2023/02/25 08:04:05;;;;;;;1.97;1.20;;;4.30;65.50;;;7.38;43.42;96658.03;5055038;28;20040;-45
2023/02/25 08:06:39;;;;;;;3.37;1.63;;;4.30;65.70;;;7.52;43.51;96655.72;5054292;28;20045;-44
2023/02/25 08:09:11;;;;;;;7.13;1.85;;;4.40;65.70;;;7.61;43.80;96660.81;5053984;28;20044;-43
2023/02/25 08:11:39;;;;;;;3.57;1.50;;;4.50;64.90;;;7.69;43.25;96657.34;5053504;28;20059;-42
2023/02/25 08:14:07;;;;;;;7.03;1.40;;;4.60;65.80;;;7.80;43.46;96657.00;5071479;28;20045;-43
2023/02/25 08:16:36;;;;;;;4.17;1.70;;;4.70;65.90;;;7.82;42.98;96657.66;5071073;28;20040;-42
2023/02/25 08:19:05;;;;;;;2.33;1.87;;;4.80;65.00;;;7.97;43.14;96662.28;5037646;28;20032;-44
2023/02/25 08:21:33;;;;;;;3.53;1.80;;;4.90;64.30;;;7.68;43.23;96661.81;5071781;28;20051;-43
2023/02/25 08:24:00;;;;;;;2.40;1.20;;;4.70;63.80;;;7.62;43.47;96674.94;5071887;28;20040;-45
2023/02/25 08:26:28;;;;;;;3.50;1.50;;;4.70;64.90;;;7.74;43.40;96673.59;5071705;28;20492;-43
2023/02/25 08:28:56;;;;;;;1.93;0.97;;;4.70;64.60;;;7.68;42.89;96680.38;5071872;28;20492;-43
2023/02/25 08:31:24;;;;;;;5.87;2.30;;;4.60;62.40;;;7.71;42.83;96668.59;5071474;28;20045;-43
2023/02/25 08:33:52;;;;;;;3.03;1.10;;;4.70;64.40;;;7.60;42.95;96680.38;5071662;28;20040;-43
2023/02/25 08:36:30;;;;;;;2.77;1.03;;;4.70;62.90;;;7.28;42.31;96673.25;5071171;28;20048;-44
2023/02/25 08:38:59;;;;;;;4.83;1.47;;;4.60;60.40;;;7.43;43.25;96663.66;5064465;28;20048;-43
2023/02/25 08:41:28;;;;;;;6.43;1.60;;;4.60;62.60;;;7.55;42.81;96663.31;5052810;28;20052;-43
2023/02/25 08:43:58;;;;;;;4.20;1.63;;;4.60;63.50;;;7.78;43.07;96668.78;5061853;28;20436;-41
2023/02/25 08:46:29;;;;;;;2.83;1.80;;;4.70;64.20;;;7.69;43.51;96676.72;5013945;28;20542;-42
2023/02/25 08:48:57;;;;;;;3.77;1.97;;;4.70;65.00;;;7.77;43.09;96664.47;5048257;28;20432;-43
2023/02/25 08:51:32;;;;;;;4.57;1.57;;;4.80;64.10;;;7.87;43.00;96665.09;5062324;28;20040;-46
2023/02/25 08:54:05;;;;;;;4.43;2.37;;;4.90;63.70;;;7.89;42.98;96666.59;5061224;28;20408;-45
2023/02/25 08:56:35;;;;;;;4.77;1.57;;;4.90;63.60;;;7.89;42.58;96663.13;5061101;28;20045;-43
2023/02/25 08:59:03;;;;;;;4.17;1.57;;;4.90;63.10;;;7.94;42.71;96662.63;5071159;28;20040;-45
2023/02/25 09:01:43;;;;;;;2.77;1.40;;;4.90;64.10;;;7.85;42.87;96661.78;5070047;28;20506;-45
2023/02/25 09:04:18;;;;;;;2.83;1.40;;;4.80;63.30;;;7.78;42.67;96666.13;5070883;28;20048;-45
2023/02/25 09:06:46;;;;;;;1.70;1.23;;;4.70;63.30;;;7.69;42.96;96658.16;5053561;28;20048;-45
2023/02/25 09:09:18;;;;;;;4.57;1.30;;;4.60;63.10;;;7.89;42.56;96660.50;5070669;28;20052;-43
2023/02/25 09:11:47;;;;;;;2.20;1.70;;;4.80;63.10;;;8.18;42.66;96661.72;5071136;28;20048;-44
2023/02/25 09:14:17;;;;;;;2.57;1.10;;;5.10;63.10;;;8.07;41.62;96660.28;5070542;28;20048;-42
2023/02/25 09:16:45;;;;;;;3.57;1.03;;;5.10;59.90;;;8.17;41.20;96660.91;5070836;28;20056;-43
2023/02/25 09:19:14;;;;;;;1.63;1.20;;;5.10;58.50;;;8.12;40.84;96657.94;5071125;28;20468;-43
2023/02/25 09:21:43;;;;;;;3.20;1.33;;;5.10;58.30;;;8.22;40.56;96666.53;5071632;28;20048;-42
2023/02/25 09:24:11;;;;;;;3.00;1.70;;;5.20;59.00;;;7.96;40.00;96655.34;5070538;28;20041;-42
2023/02/25 09:26:38;;;;;;;15.50;4.23;;;5.10;55.50;;;7.82;40.25;96662.97;5070323;28;20055;-42
2023/02/25 09:29:07;;;;;;;5.57;2.70;;;5.00;55.10;;;7.61;39.58;96668.78;5071576;28;20056;-42
2023/02/25 09:31:36;;;;;;;3.87;2.10;;;4.90;54.40;;;7.78;39.92;96666.13;5044772;28;20311;-43
2023/02/25 09:34:09;;;;;;;5.37;1.67;;;4.90;57.10;;;7.80;40.07;96662.31;5070027;28;20048;-41
2023/02/25 09:36:37;;;;;;;3.28;1.13;;;5.00;55.20;;;7.81;39.55;96652.53;5070570;28;20052;-43
2023/02/25 09:39:08;;;;;;;1.93;0.87;;;5.00;55.50;;;7.70;39.86;96645.78;5070439;28;20055;-41
2023/02/25 09:41:56;;;;;;;6.77;1.70;;;5.00;55.40;;;7.88;39.55;96645.56;5069977;28;20060;-43
2023/02/25 09:44:33;;;;;;;1.73;1.63;;;5.10;55.30;;;7.88;38.68;96648.22;5053253;28;20048;-42
2023/02/25 09:47:16;;;;;;;3.00;1.70;;;5.10;52.90;;;7.88;39.33;96650.88;5047004;28;20085;-42
2023/02/25 09:50:13;;;;;;;2.23;0.97;;;5.20;54.20;;;8.04;38.55;96642.88;5054580;28;20492;-43
2023/02/25 09:52:52;;;;;;;6.37;1.30;;;5.30;54.30;;;8.16;39.19;96645.16;5054328;28;20044;-42
2023/02/25 09:55:32;;;;;;;1.07;0.80;;;5.30;53.80;;;8.26;39.00;96657.25;5053673;28;20044;-44
2023/02/25 09:58:29;;;;;;;2.50;0.70;;;5.40;53.00;;;8.13;38.63;96656.94;5063585;28;20033;-42
2023/02/25 10:01:08;;;;;;;2.37;1.30;;;5.30;53.10;;;7.88;38.78;96654.34;5063159;28;20039;-44
2023/02/25 10:04:23;;;;;;;3.30;1.17;;;5.10;53.30;;;7.96;38.79;96657.97;5070457;28;20052;-43
2023/02/25 10:06:52;;;;;;;4.07;0.90;;;5.10;53.70;;;8.23;39.02;96654.09;5070491;28;20540;-42
2023/02/25 10:09:57;;;;;;;1.97;1.00;;;5.20;54.80;;;8.12;38.87;96654.47;5052892;28;20036;-43
2023/02/25 10:12:48;;;;;;;1.23;1.13;;;5.30;54.00;;;8.33;38.72;96654.72;5057192;28;20041;-42
2023/02/25 10:16:08;;;;;;;1.67;1.00;;;5.50;53.80;;;8.08;37.92;96660.13;5047611;28;20500;-42
2023/02/25 10:19:14;;;;;;;1.90;1.07;;;5.40;52.10;;;7.91;38.69;96655.84;5021914;28;20547;-42
2023/02/25 10:22:17;;;;;;;3.13;1.33;;;5.40;54.00;;;8.32;39.45;96663.69;5052346;28;20433;-42
2023/02/25 10:24:55;;;;;;;2.77;1.20;;;5.40;55.70;;;8.57;38.91;96659.16;5054825;28;20041;-42
2023/02/25 10:27:29;;;;;;;1.57;0.80;;;5.60;54.90;;;8.42;38.26;96656.38;5053361;28;20049;-43
2023/02/25 10:30:07;;;;;;;2.43;1.23;;;5.60;53.20;;;8.36;39.12;96650.91;5045710;28;20044;-42
2023/02/25 10:32:38;;;;;;;5.20;1.37;;;5.40;55.50;;;8.03;39.88;96654.47;5052412;28;20040;-43
2023/02/25 10:35:37;;;;;;;3.93;1.20;;;5.30;55.10;;;8.18;39.44;96646.66;5052538;28;20056;-42
2023/02/25 10:38:04;;;;;;;2.53;1.60;;;5.40;55.80;;;8.52;39.50;96644.75;5025301;28;20063;-43
2023/02/25 10:40:32;;;;;;;1.33;1.13;;;5.50;56.30;;;8.57;39.47;96637.94;5055984;28;20056;-46
2023/02/25 10:43:17;;;;;;;4.93;2.37;;;5.60;55.90;;;8.62;38.99;96635.56;5073686;28;20044;-47
2023/02/25 10:45:46;;;;;;;2.20;1.10;;;5.60;55.50;;;8.60;39.55;96631.44;5056872;28;20067;-45
2023/02/25 10:48:22;;;;;;;4.03;1.23;;;5.70;56.00;;;8.47;39.41;96624.88;5056210;28;20048;-42
2023/02/25 10:51:12;;;;;;;3.13;1.30;;;5.60;56.10;;;8.51;39.27;96630.66;5039605;28;20557;-42
2023/02/25 10:54:03;;;;;;;2.23;1.00;;;5.60;55.50;;;8.53;39.52;96626.00;5073442;28;20237;-44
2023/02/25 10:56:41;;;;;;;2.87;1.13;;;5.60;55.70;;;8.61;39.55;96630.44;5073383;28;20055;-46
2023/02/25 10:59:38;;;;;;;2.17;1.30;;;5.60;56.00;;;8.72;39.26;96630.03;5073398;28;20052;-44